Ohop, Washington
Current Conditions -  °F | °C
As of 4:08 AM on Sunday 23 Nov 2014 (Local Time) from KTCM Reporting Station
Light Rain Light Rain  
Wind Chill: 40°   Ceiling: 4900
Heat Index: 45°   Visibility: 10mi
Dew Point: 45°   Wind: 9mph
Humidity: 100%   Direction: 170°S
Pressure: 30.15"   Gusts: NA
Location:  46.993°N, 122.097°W
Report Text: KTCM 231208Z AUTO 17008KT 10SM -RA SCT035 BKN049 OVC065 07/07 A3015 RMK AO2
Loading
Personal Weather Stations






























Interactive Weather Map New forecast layout! Learn more

10-Day Weather Forecast

Advertisements
Track Severe Weather on mobile